Time;durP1;ratioP1;P1;durP2;ratioP2;P2;SDS_P1;SDS_P2;PMS_P1;PMS_P2;Temp;Humidity;BMP_temperature;BMP_pressure;BME280_temperature;BME280_humidity;BME280_pressure;Samples;Min_cycle;Max_cycle;Signal;HPM_P1;HPM_P2
2023/03/19 00:00:08;;;;;;;;;;;9.90;99.90;;;;;;5031151;28;19925;-91
2023/03/19 00:02:35;;;;;;;;;;;9.80;99.90;;;;;;5017528;28;19928;-91
2023/03/19 00:05:01;;;;;;;;;;;9.90;99.90;;;;;;5020938;28;19937;-91
2023/03/19 00:07:27;;;;;;;;;;;9.80;99.90;;;;;;5033759;28;20016;-91
2023/03/19 00:09:53;;;;;;;;;;;9.90;99.90;;;;;;5018195;28;19939;-91
2023/03/19 00:12:18;;;;;;;;;;;9.80;99.90;;;;;;5045760;28;19925;-92
2023/03/19 00:14:44;;;;;;;;;;;9.80;99.90;;;;;;5010550;28;19933;-90
2023/03/19 00:17:10;;;;;;;;;;;9.80;99.90;;;;;;5014995;28;19932;-92
2023/03/19 00:19:36;;;;;;;;;;;9.80;99.90;;;;;;5039592;28;19921;-90
2023/03/19 00:22:01;;;;;;;;;;;9.70;99.90;;;;;;5042035;28;20336;-91
2023/03/19 00:24:27;;;;;;;;;;;9.70;99.90;;;;;;5023314;28;19925;-93
2023/03/19 00:26:53;;;;;;;;;;;9.70;99.90;;;;;;5013818;28;19932;-92
2023/03/19 00:29:19;;;;;;;;;;;9.60;99.90;;;;;;5045115;28;20261;-91
2023/03/19 00:31:45;;;;;;;;;;;9.60;99.90;;;;;;5027425;28;19932;-90
2023/03/19 00:34:12;;;;;;;;;;;9.60;99.90;;;;;;5010571;28;19929;-91
2023/03/19 00:36:37;;;;;;;;;;;9.50;99.90;;;;;;5026391;28;19925;-91
2023/03/19 00:39:03;;;;;;;;;;;9.50;99.90;;;;;;5044875;28;19948;-91
2023/03/19 00:41:29;;;;;;;;;;;9.50;99.90;;;;;;5010017;28;19925;-90
2023/03/19 00:43:55;;;;;;;;;;;9.50;99.90;;;;;;5042607;28;19985;-90
2023/03/19 00:46:21;;;;;;;;;;;8.10;99.90;;;;;;5041272;28;19929;-91
2023/03/19 00:48:46;;;;;;;;;;;9.50;99.90;;;;;;5016272;28;20134;-92
2023/03/19 00:51:12;;;;;;;;;;;9.50;99.90;;;;;;5019276;28;19925;-91
2023/03/19 00:53:40;;;;;;;;;;;9.60;99.90;;;;;;5004698;28;19926;-91
2023/03/19 00:56:07;;;;;;;;;;;9.60;99.90;;;;;;5062998;28;19932;-91
2023/03/19 00:58:33;;;;;;;;;;;9.60;99.90;;;;;;5045566;28;19925;-92
2023/03/19 01:00:59;;;;;;;;;;;9.60;99.90;;;;;;5036871;28;19925;-91
2023/03/19 01:03:25;;;;;;;;;;;9.60;99.90;;;;;;5040195;28;19925;-91
2023/03/19 01:05:50;;;;;;;;;;;9.60;99.90;;;;;;5039683;28;19936;-92
2023/03/19 01:08:17;;;;;;;;;;;9.70;99.90;;;;;;5025112;28;20301;-91
2023/03/19 01:10:43;;;;;;;;;;;9.70;99.90;;;;;;5045778;28;19924;-90
2023/03/19 01:13:09;;;;;;;;;;;9.60;99.90;;;;;;5061653;28;19984;-92
2023/03/19 01:15:36;;;;;;;;;;;9.70;99.90;;;;;;5039524;28;20035;-91
2023/03/19 01:18:01;;;;;;;;;;;9.70;99.90;;;;;;5025102;28;19971;-90
2023/03/19 01:20:27;;;;;;;;;;;9.70;99.90;;;;;;5027885;28;19991;-91
2023/03/19 01:22:53;;;;;;;;;;;9.70;99.90;;;;;;5021112;28;19933;-91
2023/03/19 01:25:18;;;;;;;;;;;9.70;99.90;;;;;;5026611;28;20432;-90
2023/03/19 01:27:45;;;;;;;;;;;9.70;99.90;;;;;;5031984;28;19925;-92
2023/03/19 01:30:10;;;;;;;;;;;9.70;99.90;;;;;;5043980;28;19983;-91
2023/03/19 01:32:36;;;;;;;;;;;9.80;99.90;;;;;;5029312;28;19925;-91
2023/03/19 01:35:01;;;;;;;;;;;9.70;99.90;;;;;;5027519;28;19980;-91
2023/03/19 01:37:28;;;;;;;;;;;9.70;99.90;;;;;;5017807;28;19933;-91
2023/03/19 01:39:53;;;;;;;;;;;9.70;99.90;;;;;;5038117;28;19925;-91
2023/03/19 01:42:19;;;;;;;;;;;8.10;99.90;;;;;;5044975;28;19931;-91
2023/03/19 01:44:44;;;;;;;;;;;9.70;99.90;;;;;;5030943;28;19925;-91
2023/03/19 01:47:31;;;;;;;;;;;9.80;99.90;;;;;;5037681;28;19932;-91
2023/03/19 01:49:57;;;;;;;;;;;9.80;99.90;;;;;;5034649;28;19925;-92
2023/03/19 01:52:24;;;;;;;;;;;9.80;99.90;;;;;;5013819;28;19925;-91
2023/03/19 01:54:50;;;;;;;;;;;9.80;99.90;;;;;;4999858;28;19925;-91
2023/03/19 01:57:16;;;;;;;;;;;9.80;99.90;;;;;;5040728;28;20465;-90
2023/03/19 01:59:44;;;;;;;;;;;9.80;99.90;;;;;;5039644;28;19925;-90
2023/03/19 02:02:14;;;;;;;;;;;9.90;99.90;;;;;;5020502;28;19932;-91
2023/03/19 02:04:41;;;;;;;;;;;9.90;99.90;;;;;;5040805;28;19933;-92
2023/03/19 02:07:07;;;;;;;;;;;9.80;99.90;;;;;;5025555;28;19924;-93
2023/03/19 02:09:32;;;;;;;;;;;9.80;99.90;;;;;;5031107;28;19996;-91
2023/03/19 02:11:58;;;;;;;;;;;9.90;99.90;;;;;;5008131;28;20020;-90
2023/03/19 02:14:24;;;;;;;;;;;9.80;99.90;;;;;;5023931;28;19925;-91
2023/03/19 02:16:50;;;;;;;;;;;9.80;99.90;;;;;;5008473;28;19937;-91
2023/03/19 02:19:17;;;;;;;;;;;9.80;99.90;;;;;;5035790;28;19940;-89
2023/03/19 02:21:43;;;;;;;;;;;9.80;99.90;;;;;;5020451;28;19926;-91
2023/03/19 02:24:15;;;;;;;;;;;9.80;99.90;;;;;;5037946;28;19925;-90
2023/03/19 02:26:42;;;;;;;;;;;9.80;99.90;;;;;;5047173;28;19925;-90
2023/03/19 02:29:08;;;;;;;;;;;9.70;99.90;;;;;;5055263;28;20012;-90
2023/03/19 02:31:34;;;;;;;;;;;9.70;99.90;;;;;;5057532;28;20348;-92
2023/03/19 02:34:26;;;;;;;;;;;9.70;99.90;;;;;;5043298;28;20051;-90
2023/03/19 02:37:01;;;;;;;;;;;9.70;99.90;;;;;;5026994;28;19933;-91
2023/03/19 02:39:33;;;;;;;;;;;9.70;99.90;;;;;;5042229;28;19980;-91
2023/03/19 02:41:59;;;;;;;;;;;9.70;99.90;;;;;;5021073;28;19925;-91
2023/03/19 02:44:25;;;;;;;;;;;9.70;99.90;;;;;;5025061;28;20344;-91
2023/03/19 02:46:51;;;;;;;;;;;9.70;99.90;;;;;;5039333;28;19928;-91
2023/03/19 02:49:17;;;;;;;;;;;9.70;99.90;;;;;;5013959;28;19992;-91
2023/03/19 02:51:43;;;;;;;;;;;9.60;99.90;;;;;;5007475;28;19925;-89
2023/03/19 02:54:09;;;;;;;;;;;9.70;99.90;;;;;;5017040;28;19944;-90
2023/03/19 02:56:35;;;;;;;;;;;9.70;99.90;;;;;;5014927;28;19944;-90
2023/03/19 02:59:01;;;;;;;;;;;9.60;99.90;;;;;;5021502;28;19929;-90
2023/03/19 03:01:27;;;;;;;;;;;9.60;99.90;;;;;;5000903;28;19933;-90
2023/03/19 03:03:52;;;;;;;;;;;9.60;99.90;;;;;;5025236;28;19957;-89
2023/03/19 03:06:18;;;;;;;;;;;9.70;99.90;;;;;;5045527;28;19925;-91
2023/03/19 03:08:44;;;;;;;;;;;9.60;99.90;;;;;;5052204;28;19968;-91
2023/03/19 03:11:09;;;;;;;;;;;9.60;99.90;;;;;;5011063;28;19925;-90
2023/03/19 03:13:35;;;;;;;;;;;9.60;99.90;;;;;;5029508;28;20269;-90
2023/03/19 03:16:01;;;;;;;;;;;9.60;99.90;;;;;;5021070;28;19984;-90
2023/03/19 03:18:27;;;;;;;;;;;9.60;99.90;;;;;;5060737;28;20012;-93
2023/03/19 03:20:52;;;;;;;;;;;9.60;99.90;;;;;;5035667;28;19925;-90
2023/03/19 03:23:18;;;;;;;;;;;9.60;99.90;;;;;;5026626;28;19932;-90
2023/03/19 03:25:44;;;;;;;;;;;9.60;99.90;;;;;;5031746;28;19931;-91
2023/03/19 03:28:09;;;;;;;;;;;9.60;99.90;;;;;;5028112;28;19925;-92
2023/03/19 03:30:35;;;;;;;;;;;9.60;99.90;;;;;;5048798;28;19988;-90
2023/03/19 03:33:01;;;;;;;;;;;9.70;99.90;;;;;;5048674;28;19933;-91
2023/03/19 03:35:27;;;;;;;;;;;9.60;99.90;;;;;;5030120;28;19927;-91
2023/03/19 03:37:52;;;;;;;;;;;9.60;99.90;;;;;;5042792;28;19944;-90
2023/03/19 03:40:18;;;;;;;;;;;9.60;99.90;;;;;;5035359;28;20289;-91
2023/03/19 03:42:44;;;;;;;;;;;9.60;99.90;;;;;;5010866;28;19925;-91
2023/03/19 03:45:09;;;;;;;;;;;9.60;99.90;;;;;;5012591;28;19948;-91
2023/03/19 03:47:36;;;;;;;;;;;9.70;99.90;;;;;;5009186;28;20281;-91
2023/03/19 03:50:03;;;;;;;;;;;9.70;99.90;;;;;;5032077;28;19925;-91
2023/03/19 03:52:30;;;;;;;;;;;9.70;99.90;;;;;;5006076;28;19929;-92
2023/03/19 03:54:57;;;;;;;;;;;9.70;99.90;;;;;;5024675;28;19925;-91
2023/03/19 03:57:23;;;;;;;;;;;9.80;99.90;;;;;;5036579;28;20014;-91
2023/03/19 03:59:48;;;;;;;;;;;9.70;99.90;;;;;;5019257;28;20390;-91
2023/03/19 04:02:14;;;;;;;;;;;9.70;99.90;;;;;;5010446;28;19929;-91
2023/03/19 04:04:40;;;;;;;;;;;9.70;99.90;;;;;;5043194;28;19929;-90
2023/03/19 04:07:06;;;;;;;;;;;9.70;99.90;;;;;;5027750;28;20032;-91
2023/03/19 04:09:31;;;;;;;;;;;9.70;99.90;;;;;;5018608;28;19926;-91
2023/03/19 04:11:57;;;;;;;;;;;9.70;99.90;;;;;;5032399;28;19932;-90
2023/03/19 04:14:23;;;;;;;;;;;9.60;99.90;;;;;;5024524;28;19929;-92
2023/03/19 04:16:48;;;;;;;;;;;9.60;99.90;;;;;;5026694;28;19980;-91
2023/03/19 04:19:14;;;;;;;;;;;9.50;99.90;;;;;;5025718;28;20011;-91
2023/03/19 04:21:40;;;;;;;;;;;9.50;99.90;;;;;;5018098;28;20411;-91
2023/03/19 04:24:06;;;;;;;;;;;9.50;99.90;;;;;;5057475;28;19925;-92
2023/03/19 04:26:31;;;;;;;;;;;9.50;99.90;;;;;;5019782;28;19980;-92
2023/03/19 04:28:57;;;;;;;;;;;9.50;99.90;;;;;;5034607;28;19978;-90
2023/03/19 04:31:23;;;;;;;;;;;9.50;99.90;;;;;;5016009;28;19925;-91
2023/03/19 04:33:48;;;;;;;;;;;9.50;99.90;;;;;;5030105;28;19925;-91
2023/03/19 04:36:14;;;;;;;;;;;9.60;99.90;;;;;;4997281;28;19926;-92
2023/03/19 04:38:40;;;;;;;;;;;9.50;99.90;;;;;;5033677;28;19936;-90
2023/03/19 04:41:05;;;;;;;;;;;9.60;99.90;;;;;;5001420;28;20381;-92
2023/03/19 04:43:31;;;;;;;;;;;9.60;99.90;;;;;;5014263;28;20012;-90
2023/03/19 04:45:57;;;;;;;;;;;9.60;99.90;;;;;;5023320;28;19932;-90
2023/03/19 04:48:22;;;;;;;;;;;9.60;99.90;;;;;;5023504;28;19957;-92
2023/03/19 04:50:51;;;;;;;;;;;9.60;99.90;;;;;;5013314;28;19929;-90
2023/03/19 04:53:17;;;;;;;;;;;9.60;99.90;;;;;;5007403;28;19973;-91
2023/03/19 04:55:43;;;;;;;;;;;9.50;99.90;;;;;;5020771;28;19925;-91
2023/03/19 04:58:08;;;;;;;;;;;9.50;99.90;;;;;;5038186;28;19988;-91
2023/03/19 05:00:34;;;;;;;;;;;9.40;99.90;;;;;;5025078;28;19929;-91
2023/03/19 05:03:00;;;;;;;;;;;9.30;99.90;;;;;;5046813;28;19957;-91
2023/03/19 05:05:25;;;;;;;;;;;9.30;99.90;;;;;;5042107;28;19948;-91
2023/03/19 05:07:51;;;;;;;;;;;9.20;99.90;;;;;;5011228;28;19924;-90
2023/03/19 05:10:16;;;;;;;;;;;9.20;99.90;;;;;;5029745;28;19925;-91
2023/03/19 05:12:42;;;;;;;;;;;9.20;99.90;;;;;;5008096;28;19925;-92
2023/03/19 05:15:08;;;;;;;;;;;9.20;99.90;;;;;;5008729;28;19931;-91
2023/03/19 05:17:34;;;;;;;;;;;9.20;99.90;;;;;;5025528;28;19928;-91
2023/03/19 05:20:01;;;;;;;;;;;9.10;99.90;;;;;;5024702;28;19983;-91
2023/03/19 05:22:27;;;;;;;;;;;9.00;99.90;;;;;;5034502;28;20493;-91
2023/03/19 05:24:53;;;;;;;;;;;8.90;99.90;;;;;;5016885;28;19964;-92
2023/03/19 05:27:18;;;;;;;;;;;8.90;99.90;;;;;;5029070;28;19925;-91
2023/03/19 05:29:45;;;;;;;;;;;8.80;99.90;;;;;;5026774;28;19925;-91
2023/03/19 05:32:11;;;;;;;;;;;8.80;99.90;;;;;;5020218;28;19929;-91
2023/03/19 05:34:37;;;;;;;;;;;9.10;99.90;;;;;;5035724;28;19935;-91
2023/03/19 05:37:03;;;;;;;;;;;8.60;99.90;;;;;;5036239;28;19931;-91
2023/03/19 05:39:29;;;;;;;;;;;8.60;99.90;;;;;;5021195;28;19925;-90
2023/03/19 05:41:54;;;;;;;;;;;8.50;99.90;;;;;;5005801;28;19968;-91
2023/03/19 05:44:20;;;;;;;;;;;8.50;99.90;;;;;;5026271;28;20138;-92
2023/03/19 05:46:46;;;;;;;;;;;8.40;99.90;;;;;;5036213;28;19979;-91
2023/03/19 05:49:11;;;;;;;;;;;8.60;99.90;;;;;;5041460;28;20012;-92
2023/03/19 05:51:37;;;;;;;;;;;8.30;99.90;;;;;;5049646;28;19925;-91
2023/03/19 05:54:03;;;;;;;;;;;10.30;99.90;;;;;;5034725;28;19925;-90
2023/03/19 05:56:28;;;;;;;;;;;8.10;99.90;;;;;;5029558;28;19932;-91
2023/03/19 05:58:56;;;;;;;;;;;8.20;99.90;;;;;;5039733;28;19925;-92
2023/03/19 06:01:22;;;;;;;;;;;8.10;99.90;;;;;;5030033;28;19965;-91
2023/03/19 06:03:48;;;;;;;;;;;8.10;99.90;;;;;;5026831;28;19932;-92
2023/03/19 06:06:13;;;;;;;;;;;8.10;99.90;;;;;;5039360;28;20308;-91
2023/03/19 06:08:39;;;;;;;;;;;8.10;99.90;;;;;;5030540;28;19936;-91
2023/03/19 06:11:05;;;;;;;;;;;8.00;99.90;;;;;;5012526;28;19935;-92
2023/03/19 06:13:31;;;;;;;;;;;8.00;99.90;;;;;;5012523;28;19929;-90
2023/03/19 06:15:56;;;;;;;;;;;8.00;99.90;;;;;;5029031;28;19925;-90
2023/03/19 06:18:22;;;;;;;;;;;8.00;99.90;;;;;;5023277;28;19987;-90
2023/03/19 06:20:48;;;;;;;;;;;8.00;99.90;;;;;;5039383;28;19983;-91
2023/03/19 06:23:14;;;;;;;;;;;8.10;99.90;;;;;;5042458;28;20018;-91
2023/03/19 06:25:39;;;;;;;;;;;8.10;99.90;;;;;;5021892;28;20012;-90
2023/03/19 06:28:05;;;;;;;;;;;8.10;99.90;;;;;;5044234;28;20027;-91
2023/03/19 06:30:31;;;;;;;;;;;8.10;99.90;;;;;;5022564;28;19972;-91
2023/03/19 06:32:56;;;;;;;;;;;8.10;99.90;;;;;;5024461;28;19932;-91
2023/03/19 06:35:22;;;;;;;;;;;8.10;99.90;;;;;;5034413;28;19994;-92
2023/03/19 06:37:48;;;;;;;;;;;8.10;99.90;;;;;;5035191;28;19925;-92
2023/03/19 06:40:14;;;;;;;;;;;8.00;99.90;;;;;;5029639;28;19925;-91
2023/03/19 06:42:42;;;;;;;;;;;8.10;99.90;;;;;;5025955;28;20016;-91
2023/03/19 06:45:09;;;;;;;;;;;8.00;99.90;;;;;;5026072;28;19925;-89
2023/03/19 06:47:34;;;;;;;;;;;8.00;99.90;;;;;;5037087;28;19939;-90
2023/03/19 06:50:00;;;;;;;;;;;8.10;99.90;;;;;;5005306;28;19934;-90
2023/03/19 06:52:26;;;;;;;;;;;8.10;99.90;;;;;;5022932;28;19925;-91
2023/03/19 06:54:51;;;;;;;;;;;8.10;99.90;;;;;;5043904;28;19925;-90
2023/03/19 06:57:17;;;;;;;;;;;8.10;99.90;;;;;;5014989;28;19925;-91
2023/03/19 06:59:43;;;;;;;;;;;8.20;99.90;;;;;;5011356;28;19925;-93
2023/03/19 07:02:12;;;;;;;;;;;8.20;99.90;;;;;;5012889;28;19936;-91
2023/03/19 07:04:38;;;;;;;;;;;8.30;99.90;;;;;;5047725;28;19925;-91
2023/03/19 07:07:04;;;;;;;;;;;8.30;99.90;;;;;;5010812;28;19936;-90
2023/03/19 07:09:30;;;;;;;;;;;8.40;99.90;;;;;;5018151;28;19929;-90
2023/03/19 07:11:56;;;;;;;;;;;8.50;99.90;;;;;;5002184;28;19935;-90
2023/03/19 07:14:22;;;;;;;;;;;8.50;99.90;;;;;;5016198;28;19984;-92
2023/03/19 07:16:48;;;;;;;;;;;8.60;99.90;;;;;;5048114;28;19925;-92
2023/03/19 07:19:13;;;;;;;;;;;8.60;99.90;;;;;;5013010;28;19936;-92
2023/03/19 07:21:39;;;;;;;;;;;8.70;99.90;;;;;;5022337;28;19925;-91
2023/03/19 07:24:05;;;;;;;;;;;8.80;99.90;;;;;;5009450;28;19925;-93
2023/03/19 07:26:31;;;;;;;;;;;8.80;99.90;;;;;;5020018;28;19941;-92
2023/03/19 07:28:59;;;;;;;;;;;8.90;99.90;;;;;;5022459;28;19933;-92
2023/03/19 07:31:25;;;;;;;;;;;9.00;99.90;;;;;;5036847;28;19936;-90
2023/03/19 07:33:50;;;;;;;;;;;9.00;99.90;;;;;;5008766;28;19928;-91
2023/03/19 07:36:16;;;;;;;;;;;9.10;99.90;;;;;;5025267;28;19929;-91
2023/03/19 07:38:42;;;;;;;;;;;9.20;99.90;;;;;;5022276;28;20012;-91
2023/03/19 07:41:07;;;;;;;;;;;9.30;99.90;;;;;;5025254;28;20000;-92
2023/03/19 07:43:33;;;;;;;;;;;9.40;99.90;;;;;;5020628;28;19929;-92
2023/03/19 07:45:59;;;;;;;;;;;9.40;99.90;;;;;;5034412;28;19929;-91
2023/03/19 07:48:25;;;;;;;;;;;9.50;99.90;;;;;;5023112;28;19992;-92
2023/03/19 07:50:51;;;;;;;;;;;9.50;99.90;;;;;;5037149;28;19957;-91
2023/03/19 07:53:17;;;;;;;;;;;9.60;99.90;;;;;;5003015;28;19929;-92
2023/03/19 07:55:42;;;;;;;;;;;9.60;99.90;;;;;;5005496;28;19935;-93
2023/03/19 07:58:08;;;;;;;;;;;9.70;99.90;;;;;;5024603;28;19925;-92
2023/03/19 08:00:34;;;;;;;;;;;9.80;99.90;;;;;;5008450;28;19992;-92
2023/03/19 08:02:59;;;;;;;;;;;9.80;99.90;;;;;;5025818;28;19971;-94
2023/03/19 08:05:25;;;;;;;;;;;9.90;99.90;;;;;;5026267;28;19925;-93
2023/03/19 08:07:51;;;;;;;;;;;10.00;99.90;;;;;;5012744;28;19925;-91
2023/03/19 08:10:17;;;;;;;;;;;10.00;99.90;;;;;;5036383;28;19931;-91
2023/03/19 08:12:42;;;;;;;;;;;10.10;99.90;;;;;;5023397;28;20010;-91
2023/03/19 08:15:09;;;;;;;;;;;10.30;99.90;;;;;;5038915;28;19947;-94
2023/03/19 08:17:37;;;;;;;;;;;10.40;99.90;;;;;;5039545;28;19925;-92
2023/03/19 08:20:07;;;;;;;;;;;10.50;99.90;;;;;;5026281;28;20083;-92
2023/03/19 08:22:33;;;;;;;;;;;10.60;99.90;;;;;;5026273;28;19930;-92
2023/03/19 08:24:59;;;;;;;;;;;9.80;99.90;;;;;;5004993;28;19933;-92
2023/03/19 08:27:26;;;;;;;;;;;10.70;99.90;;;;;;5029171;28;19926;-92
2023/03/19 08:29:51;;;;;;;;;;;10.70;99.90;;;;;;4999491;28;20016;-92
2023/03/19 08:32:17;;;;;;;;;;;10.70;99.90;;;;;;5017197;28;19929;-92
2023/03/19 08:34:42;;;;;;;;;;;10.70;99.90;;;;;;5006577;28;19925;-92
2023/03/19 08:37:08;;;;;;;;;;;10.60;99.90;;;;;;5003014;28;19944;-92
2023/03/19 08:39:34;;;;;;;;;;;10.60;99.90;;;;;;5007223;28;19929;-95
2023/03/19 08:41:59;;;;;;;;;;;10.60;99.90;;;;;;5007579;28;20034;-94
2023/03/19 08:44:25;;;;;;;;;;;10.20;99.90;;;;;;5022106;28;20024;-91
2023/03/19 08:46:51;;;;;;;;;;;10.70;99.90;;;;;;5008244;28;19925;-95
2023/03/19 08:49:16;;;;;;;;;;;10.70;99.90;;;;;;5007482;28;19952;-91
2023/03/19 08:51:42;;;;;;;;;;;10.70;99.90;;;;;;5018105;28;19925;-92
2023/03/19 08:54:10;;;;;;;;;;;10.70;99.90;;;;;;5041483;28;20312;-92
2023/03/19 08:56:35;;;;;;;;;;;10.70;99.90;;;;;;5022921;28;19925;-92
2023/03/19 08:59:01;;;;;;;;;;;10.70;99.90;;;;;;5036021;28;20028;-93
2023/03/19 09:01:26;;;;;;;;;;;10.80;99.90;;;;;;5027064;28;19935;-92
2023/03/19 09:03:52;;;;;;;;;;;10.80;99.90;;;;;;5007550;28;19933;-94
2023/03/19 09:06:18;;;;;;;;;;;10.80;99.90;;;;;;5021150;28;19972;-93
2023/03/19 09:08:43;;;;;;;;;;;10.80;99.90;;;;;;5036150;28;19925;-95
2023/03/19 09:11:13;;;;;;;;;;;11.00;99.90;;;;;;5007476;28;20313;-94
2023/03/19 09:13:38;;;;;;;;;;;11.10;99.90;;;;;;5010408;28;19982;-92
2023/03/19 09:16:04;;;;;;;;;;;11.20;99.90;;;;;;5031075;28;19925;-91
2023/03/19 09:18:30;;;;;;;;;;;11.20;99.90;;;;;;5022641;28;19929;-92
2023/03/19 09:20:55;;;;;;;;;;;11.30;99.90;;;;;;5017175;28;19936;-91
2023/03/19 09:23:21;;;;;;;;;;;11.50;99.90;;;;;;5020022;28;19948;-94
2023/03/19 09:25:47;;;;;;;;;;;11.60;99.90;;;;;;5023225;28;19989;-92
2023/03/19 09:28:13;;;;;;;;;;;11.60;99.90;;;;;;5032050;28;19924;-92
2023/03/19 09:30:39;;;;;;;;;;;10.20;99.90;;;;;;5024902;28;19932;-93
2023/03/19 09:33:05;;;;;;;;;;;11.70;99.90;;;;;;5032989;28;19924;-91
2023/03/19 09:35:31;;;;;;;;;;;11.60;99.90;;;;;;5008492;28;19939;-95
2023/03/19 09:37:58;;;;;;;;;;;11.60;99.90;;;;;;5002110;28;20416;-93
2023/03/19 09:40:43;;;;;;;;;;;11.70;99.90;;;;;;5037690;28;20023;-91
2023/03/19 09:43:23;;;;;;;;;;;11.50;99.90;;;;;;5065579;28;20644;-94
2023/03/19 09:45:49;;;;;;;;;;;11.50;99.90;;;;;;5033175;28;19964;-92
2023/03/19 09:48:21;;;;;;;;;;;11.50;99.90;;;;;;5039458;28;19925;-92
2023/03/19 09:50:47;;;;;;;;;;;11.50;99.90;;;;;;5038130;28;19964;-93
2023/03/19 09:53:16;;;;;;;;;;;11.50;99.90;;;;;;5034821;28;19925;-92
2023/03/19 09:55:43;;;;;;;;;;;11.60;99.90;;;;;;5021956;28;19939;-92
2023/03/19 09:58:19;;;;;;;;;;;11.70;99.90;;;;;;5043629;28;19932;-92
2023/03/19 10:00:49;;;;;;;;;;;11.50;99.90;;;;;;5036557;28;19929;-94
2023/03/19 10:03:22;;;;;;;;;;;11.70;99.90;;;;;;5032830;28;19924;-94
2023/03/19 10:06:11;;;;;;;;;;;11.70;99.90;;;;;;5018789;28;19933;-92
2023/03/19 10:08:43;;;;;;;;;;;11.60;99.90;;;;;;5007850;28;20617;-92
2023/03/19 10:11:08;;;;;;;;;;;11.50;99.90;;;;;;5028484;28;19925;-92
2023/03/19 10:13:39;;;;;;;;;;;11.50;99.90;;;;;;5021934;28;19931;-93
2023/03/19 10:16:10;;;;;;;;;;;11.50;99.90;;;;;;5034175;28;19925;-93
2023/03/19 10:18:38;;;;;;;;;;;11.50;99.90;;;;;;5011701;28;19968;-92
2023/03/19 10:21:10;;;;;;;;;;;11.50;99.90;;;;;;5023014;28;19940;-91
2023/03/19 10:23:48;;;;;;;;;;;11.60;99.90;;;;;;5023277;28;20367;-94
2023/03/19 10:26:18;;;;;;;;;;;11.70;99.90;;;;;;5052309;28;19925;-92
2023/03/19 10:28:46;;;;;;;;;;;11.80;99.90;;;;;;5037241;28;19924;-94
2023/03/19 10:31:17;;;;;;;;;;;12.00;99.90;;;;;;5030798;28;20175;-92
2023/03/19 10:33:45;;;;;;;;;;;12.00;99.90;;;;;;5022477;28;19924;-93
2023/03/19 10:36:11;;;;;;;;;;;12.00;99.90;;;;;;5002138;28;19929;-93
2023/03/19 10:38:41;;;;;;;;;;;12.00;99.90;;;;;;5024477;28;19940;-93
2023/03/19 10:41:09;;;;;;;;;;;11.90;99.90;;;;;;5034884;28;19927;-93
2023/03/19 10:43:35;;;;;;;;;;;11.90;99.90;;;;;;5012291;28;19934;-92
2023/03/19 10:46:01;;;;;;;;;;;12.00;99.90;;;;;;5047950;28;19925;-93
2023/03/19 10:48:28;;;;;;;;;;;11.90;99.90;;;;;;5038211;28;19956;-93
2023/03/19 10:50:53;;;;;;;;;;;11.80;99.90;;;;;;5022856;28;19964;-92
2023/03/19 10:53:32;;;;;;;;;;;11.90;99.90;;;;;;5010335;28;19932;-91
2023/03/19 10:56:06;;;;;;;;;;;11.90;99.90;;;;;;5011736;28;19961;-92
2023/03/19 10:58:35;;;;;;;;;;;11.90;99.90;;;;;;5033663;28;19925;-93
2023/03/19 11:01:11;;;;;;;;;;;12.00;99.90;;;;;;5036192;28;19991;-93
2023/03/19 11:03:37;;;;;;;;;;;12.00;99.90;;;;;;5027975;28;19930;-92
2023/03/19 11:06:22;;;;;;;;;;;11.90;99.90;;;;;;5019480;28;19980;-92
2023/03/19 11:09:06;;;;;;;;;;;11.90;99.90;;;;;;5016561;28;19932;-94
2023/03/19 11:11:33;;;;;;;;;;;11.90;99.90;;;;;;5028652;28;19925;-94
2023/03/19 11:14:16;;;;;;;;;;;11.80;99.90;;;;;;5052929;28;19925;-93
2023/03/19 11:16:46;;;;;;;;;;;11.80;99.90;;;;;;5021522;28;19952;-93
2023/03/19 11:19:31;;;;;;;;;;;11.90;99.90;;;;;;5045296;28;19964;-92
2023/03/19 11:22:06;;;;;;;;;;;11.80;99.90;;;;;;5032765;28;20036;-92
2023/03/19 11:24:33;;;;;;;;;;;11.80;99.90;;;;;;5021273;28;19968;-92
2023/03/19 11:26:59;;;;;;;;;;;11.80;99.90;;;;;;5034476;28;19933;-92
2023/03/19 11:29:28;;;;;;;;;;;11.80;99.90;;;;;;5022586;28;19925;-93
2023/03/19 11:32:13;;;;;;;;;;;11.80;99.90;;;;;;5036518;28;19925;-92
2023/03/19 11:34:42;;;;;;;;;;;11.90;99.90;;;;;;5045506;28;19956;-92
2023/03/19 11:37:27;;;;;;;;;;;12.00;99.90;;;;;;5022296;28;19926;-91
2023/03/19 11:40:09;;;;;;;;;;;12.20;99.90;;;;;;5027014;28;19925;-92
2023/03/19 11:42:53;;;;;;;;;;;12.30;99.90;;;;;;5029079;28;20009;-93
2023/03/19 11:45:22;;;;;;;;;;;12.50;99.90;;;;;;5021297;28;19972;-92
2023/03/19 11:47:55;;;;;;;;;;;12.40;99.90;;;;;;5034826;28;20020;-91
2023/03/19 11:50:21;;;;;;;;;;;12.50;99.90;;;;;;5017283;28;20035;-94
2023/03/19 11:53:07;;;;;;;;;;;12.90;99.90;;;;;;5045413;28;20341;-93
2023/03/19 11:55:38;;;;;;;;;;;12.70;99.90;;;;;;5045679;28;19935;-92
2023/03/19 11:58:19;;;;;;;;;;;12.70;99.90;;;;;;5041693;28;19925;-91
2023/03/19 12:00:49;;;;;;;;;;;12.80;99.90;;;;;;5038155;28;20012;-91
2023/03/19 12:03:24;;;;;;;;;;;12.80;99.90;;;;;;5040821;28;19979;-91
2023/03/19 12:05:55;;;;;;;;;;;12.50;99.90;;;;;;5034134;28;19947;-91
2023/03/19 12:08:21;;;;;;;;;;;12.40;99.90;;;;;;5041469;28;19925;-92
2023/03/19 12:10:53;;;;;;;;;;;12.40;99.90;;;;;;5020573;28;19925;-93
2023/03/19 12:13:24;;;;;;;;;;;12.40;99.90;;;;;;5041044;28;19994;-93
2023/03/19 12:15:50;;;;;;;;;;;12.50;99.90;;;;;;5029502;28;20427;-93
2023/03/19 12:18:15;;;;;;;;;;;12.60;99.90;;;;;;5013931;28;19971;-92
2023/03/19 12:20:48;;;;;;;;;;;12.70;99.90;;;;;;5038440;28;19925;-93
2023/03/19 12:23:32;;;;;;;;;;;12.70;99.90;;;;;;5018666;28;20004;-92
2023/03/19 12:26:03;;;;;;;;;;;12.80;99.90;;;;;;5033169;28;19929;-92
2023/03/19 12:28:34;;;;;;;;;;;12.90;99.90;;;;;;5032187;28;19932;-92
2023/03/19 12:31:19;;;;;;;;;;;12.90;99.90;;;;;;5017623;28;19933;-93
2023/03/19 12:33:51;;;;;;;;;;;13.00;99.90;;;;;;5023265;28;19925;-92
2023/03/19 12:36:20;;;;;;;;;;;13.10;99.90;;;;;;5038171;28;19925;-93
2023/03/19 12:38:52;;;;;;;;;;;13.20;99.90;;;;;;5024780;28;19925;-91
2023/03/19 12:41:22;;;;;;;;;;;12.90;99.90;;;;;;5020148;28;19925;-90
2023/03/19 12:43:52;;;;;;;;;;;12.60;99.90;;;;;;5038999;28;19925;-92
2023/03/19 12:46:31;;;;;;;;;;;12.60;99.90;;;;;;5044255;28;19925;-93
2023/03/19 12:49:01;;;;;;;;;;;12.40;99.90;;;;;;5035203;28;20006;-93
2023/03/19 12:51:32;;;;;;;;;;;12.30;99.90;;;;;;5037494;28;20017;-93
2023/03/19 12:53:58;;;;;;;;;;;12.40;99.90;;;;;;5018081;28;19925;-91
2023/03/19 12:56:33;;;;;;;;;;;12.30;99.90;;;;;;5039327;28;20408;-93
2023/03/19 12:59:04;;;;;;;;;;;12.30;99.90;;;;;;5034177;28;19929;-91
2023/03/19 13:01:32;;;;;;;;;;;12.40;99.90;;;;;;5034967;28;19925;-92
2023/03/19 13:04:02;;;;;;;;;;;12.60;99.90;;;;;;5015577;28;19929;-94
2023/03/19 13:06:28;;;;;;;;;;;12.00;99.90;;;;;;5036009;28;19929;-93
2023/03/19 13:09:12;;;;;;;;;;;12.00;99.90;;;;;;5029731;28;20115;-92
2023/03/19 13:11:47;;;;;;;;;;;11.90;99.90;;;;;;5036299;28;19980;-93
2023/03/19 13:14:33;;;;;;;;;;;11.90;99.90;;;;;;5051275;28;19933;-94
2023/03/19 13:17:05;;;;;;;;;;;11.90;99.90;;;;;;4980826;28;19933;-93
2023/03/19 13:19:34;;;;;;;;;;;11.90;99.90;;;;;;5020558;28;19929;-94
2023/03/19 13:22:03;;;;;;;;;;;12.20;99.90;;;;;;5036401;28;19929;-94
2023/03/19 13:24:39;;;;;;;;;;;12.30;99.90;;;;;;5032713;28;20016;-94
2023/03/19 13:27:06;;;;;;;;;;;12.30;99.90;;;;;;5024925;28;19976;-92
2023/03/19 13:29:37;;;;;;;;;;;12.40;99.90;;;;;;5022854;28;19929;-93
2023/03/19 13:32:19;;;;;;;;;;;12.10;99.90;;;;;;5022332;28;19932;-93
2023/03/19 13:34:45;;;;;;;;;;;11.80;99.90;;;;;;5026090;28;19925;-95
2023/03/19 13:37:19;;;;;;;;;;;11.80;99.90;;;;;;5021339;28;19976;-94
2023/03/19 13:39:47;;;;;;;;;;;11.70;99.90;;;;;;5017745;28;19933;-93
2023/03/19 13:42:18;;;;;;;;;;;11.60;99.90;;;;;;5032379;28;19971;-94
2023/03/19 13:44:49;;;;;;;;;;;11.60;99.90;;;;;;5015127;28;19939;-94
2023/03/19 13:47:24;;;;;;;;;;;11.40;99.90;;;;;;5010317;28;19960;-94
2023/03/19 13:50:15;;;;;;;;;;;11.70;99.90;;;;;;5020048;28;19933;-92
2023/03/19 13:52:45;;;;;;;;;;;11.70;99.90;;;;;;5026444;28;19933;-95
2023/03/19 13:55:20;;;;;;;;;;;11.70;99.90;;;;;;5019481;28;19933;-95
2023/03/19 13:58:10;;;;;;;;;;;11.80;99.90;;;;;;5022025;28;19925;-93
2023/03/19 14:00:45;;;;;;;;;;;11.70;99.90;;;;;;5031984;28;19929;-93
2023/03/19 14:03:25;;;;;;;;;;;11.70;99.90;;;;;;5024420;28;19933;-94
2023/03/19 14:05:52;;;;;;;;;;;11.70;99.90;;;;;;5031137;28;19929;-95
2023/03/19 14:08:20;;;;;;;;;;;11.50;99.90;;;;;;5034587;28;19925;-90
2023/03/19 14:10:48;;;;;;;;;;;11.40;99.90;;;;;;5023892;28;19992;-92
2023/03/19 14:13:27;;;;;;;;;;;11.40;99.90;;;;;;5014728;28;19937;-92
2023/03/19 14:15:53;;;;;;;;;;;11.30;99.90;;;;;;5008165;28;19956;-91
2023/03/19 14:18:21;;;;;;;;;;;11.30;99.90;;;;;;5003869;28;19936;-93
2023/03/19 14:20:57;;;;;;;;;;;11.30;99.90;;;;;;5019179;28;20207;-94
2023/03/19 14:23:24;;;;;;;;;;;11.20;99.90;;;;;;5025443;28;19932;-92
2023/03/19 14:25:52;;;;;;;;;;;11.20;99.90;;;;;;5022969;28;19952;-93
2023/03/19 14:28:22;;;;;;;;;;;11.20;99.90;;;;;;5019370;28;20406;-96